Flight Track Log - Related Links

Times and Time Zones

All times are in EDT time to prevent confusion due to time zone crossing. See the LOF3359 flight status page for this flight to view local times or setup timezone preferences in your user account.

Time Position Orientation Groundspeed Altitude Reporting Facility
EDT Latitude Longitude Course Direction KTS MPH feet Rate Location/Type
Sat 05:17:12 PM 37.2961 -93.2464 40° Northeast 238 274 5,000  Level Kansas City Center
Sat 05:18:16 PM 37.3658 -93.1867 34° Northeast 278 320 7,500 2,226 Climbing Kansas City Center
Sat 05:19:16 PM 37.4375 -93.1261 34° Northeast 297 342 9,600 1,736 Climbing Kansas City Center
Sat 05:20:00 PM 37.6459 -92.9636 40° Northeast  Level Estimated
Sat 05:20:17 PM 37.5122 -93.0597 35° Northeast 314 361 11,000  Level Kansas City Center
Sat 05:21:00 PM 37.7258 -92.8781 40° Northeast  Level Estimated
Sat 05:21:21 PM 37.6156 -92.9703 34° Northeast 352 405 12,900  Level Kansas City Center
Sat 05:22:00 PM 37.8056 -92.7924 40° Northeast  Level Estimated
Sat 05:22:21 PM 37.7028 -92.8939 35° Northeast 374 430 14,900  Level Kansas City Center
Sat 05:23:23 PM 37.7869 -92.8203 35° Northeast 370 426 16,900 1,776 Climbing Kansas City Center
Sat 05:24:26 PM 37.8711 -92.7461 35° Northeast 366 421 18,600 1,756 Climbing Kansas City Center
Sat 05:25:26 PM 37.9631 -92.6656 35° Northeast 377 434 20,500 1,902 Climbing Kansas City Center
Sat 05:26:29 PM 38.0500 -92.5892 35° Northeast 380 437 22,500 1,951 Climbing Kansas City Center
Sat 05:27:29 PM 38.1353 -92.5144 35° Northeast 376 433 24,500 1,785 Climbing Kansas City Center
Sat 05:28:30 PM 38.2178 -92.4414 35° Northeast 368 423 26,100 1,200 Climbing Kansas City Center
Sat 05:29:34 PM 38.3000 -92.3678 35° Northeast 361 415 27,000 432 Climbing Kansas City Center
Sat 05:30:35 PM 38.3919 -92.2847 35° Northeast 394 453 27,000  Level Kansas City Center
Sat 05:31:35 PM 38.4883 -92.1967 36° Northeast 417 480 27,000  Level Kansas City Center
Sat 05:32:39 PM 38.5853 -92.1100 35° Northeast 423 487 27,000  Level Kansas City Center
Sat 05:33:40 PM 38.6836 -92.0217 35° Northeast 427 491 27,000  Level Kansas City Center
Sat 05:34:41 PM 38.7997 -91.9169 35° Northeast 425 489 27,000  Level Kansas City Center
Sat 05:35:41 PM 38.8956 -91.8300 35° Northeast 422 486 27,000  Level Kansas City Center
Sat 05:36:45 PM 38.9917 -91.7425 35° Northeast 421 484 27,000  Level Kansas City Center
Sat 05:37:47 PM 39.0822 -91.6594 35° Northeast 423 487 27,000  Level Kansas City Center
Sat 05:38:47 PM 39.1786 -91.5722 35° Northeast 423 487 27,000  Level Kansas City Center
Sat 05:39:48 PM 39.2769 -91.4828 35° Northeast 427 491 27,000  Level Kansas City Center
Sat 05:40:52 PM 39.3803 -91.3861 36° Northeast 445 512 27,000  Level Kansas City Center
Sat 05:41:53 PM 39.5075 -91.2686 35° Northeast 457 526 27,000  Level Kansas City Center
Sat 05:42:54 PM 39.6142 -91.1692 36° Northeast 465 535 27,000  Level Kansas City Center
Sat 05:43:55 PM 39.7228 -91.0678 36° Northeast 473 544 27,000  Level Kansas City Center
Sat 05:44:59 PM 39.8200 -90.9683 38° Northeast 481 554 27,000  Level Kansas City Center
Sat 05:45:59 PM 39.9275 -90.8608 37° Northeast 484 557 27,000  Level Kansas City Center
Sat 05:47:00 PM 40.0592 -90.7281 38° Northeast 495 570 27,000  Level Kansas City Center
Sat 05:47:45 PM 40.1267 -90.6589 38° Northeast 498 573 27,000  Level Chicago Center
Sat 05:48:47 PM 40.2328 -90.5525 37° Northeast 491 565 27,000  Level Chicago Center
Sat 05:49:48 PM 40.3622 -90.4203 38° Northeast 490 564 27,000  Level Chicago Center
Sat 05:50:50 PM 40.4686 -90.3097 38° Northeast 488 562 27,000  Level Chicago Center
Sat 05:51:51 PM 40.5725 -90.2031 38° Northeast 482 555 27,000  Level Chicago Center
Sat 05:52:53 PM 40.6803 -90.0919 38° Northeast 489 563 27,000 -435 Level Chicago Center
Sat 05:53:55 PM 40.7872 -89.9811 38° Northeast 486 559 26,100 -1,220 Descending Chicago Center
Sat 05:54:56 PM 40.8864 -89.8778 38° Northeast 459 528 24,500 -1,024 Descending Chicago Center
Sat 05:55:58 PM 41.0019 -89.7561 38° Northeast 444 511 24,000 -242 Descending Chicago Center
Sat 05:57:00 PM 41.0881 -89.6644 39° Northeast 437 503 24,000  Level Chicago Center
Sat 05:58:01 PM 41.1764 -89.5483 45° Northeast 450 518 24,000 -244 Level Chicago Center
Sat 05:59:03 PM 41.2353 -89.4044 61° Northeast 445 512 23,500 -1,597 Descending Chicago Center
Sat 06:00:05 PM 41.2914 -89.2658 62° Northeast 430 495 20,700 -2,927 Descending Chicago Center
Sat 06:01:06 PM 41.3489 -89.1186 62° Northeast 425 489 17,500 -2,683 Descending Chicago Center
Sat 06:02:08 PM 41.4019 -88.9861 62° Northeast 411 473 15,200 -2,371 Descending Chicago Center
Sat 06:03:10 PM 41.4656 -88.8247 62° Northeast 413 475 12,600 -2,049 Descending Chicago Center
Sat 06:04:11 PM 41.5189 -88.6922 62° Northeast 407 468 11,000 -829 Descending Chicago Center
Sat 06:05:13 PM 41.5719 -88.5556 63° Northeast 414 476 10,900  Descending Chicago Center
Sat 06:06:15 PM 41.6303 -88.4267 59° Northeast 405 466 11,000 -49 Climbing Chicago Center
Sat 06:07:16 PM 41.6856 -88.3347 51° Northeast 316 364 10,800 -732 Descending Chicago Center
Sat 06:08:18 PM 41.7314 -88.2561 52° Northeast 273 314 9,500 -1,258 Descending Chicago Center
Sat 06:09:20 PM 41.7786 -88.1761 52° Northeast 275 316 8,200 -1,220 Descending Chicago Center
Sat 06:10:21 PM 41.8317 -88.0844 52° Northeast 262 302 7,000 -585 Descending Chicago Center
Sat 06:11:23 PM 41.8947 -88.0675 11° North 238 274 7,000  Level Chicago Center
Sat 06:12:25 PM 41.9581 -88.0567 North 233 268 7,000  Level Chicago Center
Sat 06:13:26 PM 42.0014 -88.0922 329° Northwest 193 222 7,000  Level Chicago Center
Sat 06:14:28 PM 42.0414 -88.1306 325° Northwest 179 206 7,000  Level Chicago Center
Sat 06:15:30 PM 42.0833 -88.1706 325° Northwest 183 211 7,000  Level Chicago Center
Sat 06:16:31 PM 42.1258 -88.2144 323° Northwest 191 220 7,000  Level Chicago Center
Sat 06:17:33 PM 42.1783 -88.2633 325° Northwest 192 221 7,000 -145 Level Chicago Center
Sat 06:18:35 PM 42.2283 -88.2947 335° Northwest 207 238 6,700 -878 Descending Chicago Center
Sat 06:19:36 PM 42.2414 -88.2197 77° East 224 258 5,200 -1,122 Descending Chicago Center
Sat 06:20:38 PM 42.2083 -88.1800 138° Southeast 170 196 4,400 -581 Descending Chicago Center
Sat 06:21:40 PM 42.1781 -88.1469 141° Southeast 146 168 4,000 -195 Descending Chicago Center
Sat 06:22:41 PM 42.1464 -88.1108 140° Southeast 147 169 4,000 -146 Level Chicago Center
Sat 06:23:43 PM 42.1089 -88.0686 140° Southeast 147 169 3,700 -462 Descending Chicago Center
Sat 06:24:12 PM 42.1000 -88.0500 123° Southeast 158 182 3,300 -809 Descending Chicago TRACON
Sat 06:25:12 PM 42.0667 -88.0167 143° Southeast 155 178 2,500 -750 Descending Chicago TRACON
Sat 06:26:12 PM 42.0333 -87.9833 143° Southeast 127 146 1,800 -700 Descending Chicago TRACON
Sat 06:27:12 PM 42.0000 -87.9500 143° Southeast 132 152 1,100 -700 Descending Chicago TRACON

Login

Don't have an account? Register now (free) for customized features, flight alerts, and more!